sensor_id;sensor_type;location;lat;lon;timestamp;P1;durP1;ratioP1;P2;durP2;ratioP2
57057;SDS011;55017;52.848;6.748;2023-07-28T00:00:06;118.80;;;115.20;;
57057;SDS011;55017;52.848;6.748;2023-07-28T00:02:33;115.07;;;111.57;;
57057;SDS011;55017;52.848;6.748;2023-07-28T00:04:58;117.93;;;114.32;;
57057;SDS011;55017;52.848;6.748;2023-07-28T00:07:24;116.20;;;112.70;;
57057;SDS011;55017;52.848;6.748;2023-07-28T00:09:50;114.13;;;110.63;;
57057;SDS011;55017;52.848;6.748;2023-07-28T00:12:15;117.05;;;113.47;;
57057;SDS011;55017;52.848;6.748;2023-07-28T00:14:41;115.47;;;111.97;;
57057;SDS011;55017;52.848;6.748;2023-07-28T00:17:06;118.40;;;114.80;;
57057;SDS011;55017;52.848;6.748;2023-07-28T00:19:32;116.15;;;112.65;;
57057;SDS011;55017;52.848;6.748;2023-07-28T00:21:57;117.95;;;114.35;;
57057;SDS011;55017;52.848;6.748;2023-07-28T00:24:23;117.85;;;114.25;;
57057;SDS011;55017;52.848;6.748;2023-07-28T00:26:48;117.55;;;113.95;;
57057;SDS011;55017;52.848;6.748;2023-07-28T00:29:14;116.07;;;112.57;;
57057;SDS011;55017;52.848;6.748;2023-07-28T00:31:40;115.10;;;111.60;;
57057;SDS011;55017;52.848;6.748;2023-07-28T00:34:05;119.93;;;116.30;;
57057;SDS011;55017;52.848;6.748;2023-07-28T00:36:31;119.10;;;115.50;;
57057;SDS011;55017;52.848;6.748;2023-07-28T00:38:57;114.82;;;111.32;;
57057;SDS011;55017;52.848;6.748;2023-07-28T00:41:23;114.20;;;110.70;;
57057;SDS011;55017;52.848;6.748;2023-07-28T00:43:49;114.68;;;111.18;;
57057;SDS011;55017;52.848;6.748;2023-07-28T00:46:14;118.18;;;114.57;;
57057;SDS011;55017;52.848;6.748;2023-07-28T00:48:41;119.80;;;116.20;;
57057;SDS011;55017;52.848;6.748;2023-07-28T00:51:10;116.30;;;112.80;;
57057;SDS011;55017;52.848;6.748;2023-07-28T00:53:36;117.13;;;113.53;;
57057;SDS011;55017;52.848;6.748;2023-07-28T00:56:02;115.65;;;112.15;;
57057;SDS011;55017;52.848;6.748;2023-07-28T00:58:29;118.25;;;114.65;;
57057;SDS011;55017;52.848;6.748;2023-07-28T01:00:55;113.70;;;110.25;;
57057;SDS011;55017;52.848;6.748;2023-07-28T01:03:20;115.15;;;111.65;;
57057;SDS011;55017;52.848;6.748;2023-07-28T01:08:36;118.03;;;114.43;;
57057;SDS011;55017;52.848;6.748;2023-07-28T01:11:08;113.75;;;110.30;;
57057;SDS011;55017;52.848;6.748;2023-07-28T01:13:33;116.65;;;113.13;;
57057;SDS011;55017;52.848;6.748;2023-07-28T01:15:59;118.78;;;115.18;;
57057;SDS011;55017;52.848;6.748;2023-07-28T01:18:26;115.38;;;111.88;;
57057;SDS011;55017;52.848;6.748;2023-07-28T01:20:52;116.18;;;112.68;;
57057;SDS011;55017;52.848;6.748;2023-07-28T01:26:08;114.78;;;111.28;;
57057;SDS011;55017;52.848;6.748;2023-07-28T01:28:36;119.70;;;116.10;;
57057;SDS011;55017;52.848;6.748;2023-07-28T01:31:04;116.07;;;112.57;;
57057;SDS011;55017;52.848;6.748;2023-07-28T01:33:31;118.15;;;114.55;;
57057;SDS011;55017;52.848;6.748;2023-07-28T01:35:57;117.55;;;113.95;;
57057;SDS011;55017;52.848;6.748;2023-07-28T01:38:25;118.97;;;115.38;;
57057;SDS011;55017;52.848;6.748;2023-07-28T01:40:50;116.07;;;112.57;;
57057;SDS011;55017;52.848;6.748;2023-07-28T01:43:16;119.13;;;115.53;;
57057;SDS011;55017;52.848;6.748;2023-07-28T01:45:42;122.20;;;118.50;;
57057;SDS011;55017;52.848;6.748;2023-07-28T01:48:07;118.63;;;115.03;;
57057;SDS011;55017;52.848;6.748;2023-07-28T01:50:34;117.38;;;113.78;;
57057;SDS011;55017;52.848;6.748;2023-07-28T01:53:00;115.10;;;111.60;;
57057;SDS011;55017;52.848;6.748;2023-07-28T01:55:26;114.97;;;111.47;;
57057;SDS011;55017;52.848;6.748;2023-07-28T01:57:56;114.22;;;110.78;;
57057;SDS011;55017;52.848;6.748;2023-07-28T02:00:23;117.82;;;114.22;;
57057;SDS011;55017;52.848;6.748;2023-07-28T02:02:49;119.13;;;115.53;;
57057;SDS011;55017;52.848;6.748;2023-07-28T02:05:15;117.78;;;114.18;;
57057;SDS011;55017;52.848;6.748;2023-07-28T02:07:41;117.82;;;114.22;;
57057;SDS011;55017;52.848;6.748;2023-07-28T02:10:07;114.40;;;110.90;;
57057;SDS011;55017;52.848;6.748;2023-07-28T02:12:33;113.55;;;110.10;;
57057;SDS011;55017;52.848;6.748;2023-07-28T02:14:59;116.35;;;112.82;;
57057;SDS011;55017;52.848;6.748;2023-07-28T02:17:25;113.80;;;110.35;;
57057;SDS011;55017;52.848;6.748;2023-07-28T02:19:50;118.30;;;114.70;;
57057;SDS011;55017;52.848;6.748;2023-07-28T02:22:16;116.18;;;112.68;;
57057;SDS011;55017;52.848;6.748;2023-07-28T02:24:42;118.50;;;114.90;;
57057;SDS011;55017;52.848;6.748;2023-07-28T02:27:07;122.00;;;118.30;;
57057;SDS011;55017;52.848;6.748;2023-07-28T02:29:33;120.60;;;116.93;;
57057;SDS011;55017;52.848;6.748;2023-07-28T02:31:58;121.05;;;117.35;;
57057;SDS011;55017;52.848;6.748;2023-07-28T02:34:24;122.35;;;118.65;;
57057;SDS011;55017;52.848;6.748;2023-07-28T02:36:49;121.70;;;118.00;;
57057;SDS011;55017;52.848;6.748;2023-07-28T02:39:15;118.53;;;114.93;;
57057;SDS011;55017;52.848;6.748;2023-07-28T02:41:42;118.47;;;114.88;;
57057;SDS011;55017;52.848;6.748;2023-07-28T02:44:08;117.22;;;113.63;;
57057;SDS011;55017;52.848;6.748;2023-07-28T02:46:33;116.90;;;113.35;;
57057;SDS011;55017;52.848;6.748;2023-07-28T02:48:59;117.25;;;113.68;;
57057;SDS011;55017;52.848;6.748;2023-07-28T02:51:24;121.63;;;117.93;;
57057;SDS011;55017;52.848;6.748;2023-07-28T02:53:50;120.45;;;116.80;;
57057;SDS011;55017;52.848;6.748;2023-07-28T02:56:15;117.43;;;113.85;;
57057;SDS011;55017;52.848;6.748;2023-07-28T02:58:41;117.72;;;114.13;;
57057;SDS011;55017;52.848;6.748;2023-07-28T03:01:07;118.55;;;114.95;;
57057;SDS011;55017;52.848;6.748;2023-07-28T03:03:32;117.82;;;114.22;;
57057;SDS011;55017;52.848;6.748;2023-07-28T03:05:58;115.93;;;112.43;;
57057;SDS011;55017;52.848;6.748;2023-07-28T03:08:23;121.97;;;118.28;;
57057;SDS011;55017;52.848;6.748;2023-07-28T03:10:49;120.50;;;116.82;;
57057;SDS011;55017;52.848;6.748;2023-07-28T03:13:14;121.10;;;117.40;;
57057;SDS011;55017;52.848;6.748;2023-07-28T03:15:40;117.45;;;113.85;;
57057;SDS011;55017;52.848;6.748;2023-07-28T03:18:06;116.93;;;113.35;;
57057;SDS011;55017;52.848;6.748;2023-07-28T03:20:31;116.07;;;112.57;;
57057;SDS011;55017;52.848;6.748;2023-07-28T03:22:57;114.75;;;111.25;;
57057;SDS011;55017;52.848;6.748;2023-07-28T03:25:22;115.90;;;112.40;;
57057;SDS011;55017;52.848;6.748;2023-07-28T03:27:48;115.95;;;112.45;;
57057;SDS011;55017;52.848;6.748;2023-07-28T03:30:13;118.40;;;114.80;;
57057;SDS011;55017;52.848;6.748;2023-07-28T03:32:39;116.65;;;113.13;;
57057;SDS011;55017;52.848;6.748;2023-07-28T03:35:05;116.00;;;112.50;;
57057;SDS011;55017;52.848;6.748;2023-07-28T03:37:31;117.00;;;113.43;;
57057;SDS011;55017;52.848;6.748;2023-07-28T03:39:58;119.57;;;115.95;;
57057;SDS011;55017;52.848;6.748;2023-07-28T03:42:24;115.80;;;112.30;;
57057;SDS011;55017;52.848;6.748;2023-07-28T03:44:49;120.68;;;116.97;;
57057;SDS011;55017;52.848;6.748;2023-07-28T03:47:15;118.32;;;114.72;;
57057;SDS011;55017;52.848;6.748;2023-07-28T03:49:41;114.20;;;110.70;;
57057;SDS011;55017;52.848;6.748;2023-07-28T03:52:06;117.93;;;114.32;;
57057;SDS011;55017;52.848;6.748;2023-07-28T03:54:32;115.10;;;111.60;;
57057;SDS011;55017;52.848;6.748;2023-07-28T03:56:57;115.70;;;112.20;;
57057;SDS011;55017;52.848;6.748;2023-07-28T03:59:23;117.65;;;114.05;;
57057;SDS011;55017;52.848;6.748;2023-07-28T04:01:49;118.68;;;115.07;;
57057;SDS011;55017;52.848;6.748;2023-07-28T04:04:14;121.65;;;117.95;;
57057;SDS011;55017;52.848;6.748;2023-07-28T04:06:41;123.75;;;119.97;;
57057;SDS011;55017;52.848;6.748;2023-07-28T04:09:07;117.95;;;114.35;;
57057;SDS011;55017;52.848;6.748;2023-07-28T04:11:33;118.43;;;114.82;;
57057;SDS011;55017;52.848;6.748;2023-07-28T04:13:59;116.70;;;113.20;;
57057;SDS011;55017;52.848;6.748;2023-07-28T04:16:25;114.80;;;111.30;;
57057;SDS011;55017;52.848;6.748;2023-07-28T04:18:50;117.93;;;114.32;;
57057;SDS011;55017;52.848;6.748;2023-07-28T04:21:16;116.68;;;113.18;;
57057;SDS011;55017;52.848;6.748;2023-07-28T04:23:41;115.85;;;112.35;;
57057;SDS011;55017;52.848;6.748;2023-07-28T04:26:08;116.28;;;112.78;;
57057;SDS011;55017;52.848;6.748;2023-07-28T04:28:34;116.50;;;113.00;;
57057;SDS011;55017;52.848;6.748;2023-07-28T04:30:59;110.75;;;107.35;;
57057;SDS011;55017;52.848;6.748;2023-07-28T04:33:25;114.05;;;110.57;;
57057;SDS011;55017;52.848;6.748;2023-07-28T04:35:51;114.00;;;110.53;;
57057;SDS011;55017;52.848;6.748;2023-07-28T04:38:16;119.95;;;116.35;;
57057;SDS011;55017;52.848;6.748;2023-07-28T04:40:43;113.82;;;110.38;;
57057;SDS011;55017;52.848;6.748;2023-07-28T04:43:09;113.85;;;110.38;;
57057;SDS011;55017;52.848;6.748;2023-07-28T04:45:35;120.88;;;117.18;;
57057;SDS011;55017;52.848;6.748;2023-07-28T04:48:00;115.35;;;111.85;;
57057;SDS011;55017;52.848;6.748;2023-07-28T04:50:26;114.07;;;110.60;;
57057;SDS011;55017;52.848;6.748;2023-07-28T04:52:52;118.00;;;114.40;;
57057;SDS011;55017;52.848;6.748;2023-07-28T04:55:17;118.82;;;115.22;;
57057;SDS011;55017;52.848;6.748;2023-07-28T04:57:43;123.88;;;120.07;;
57057;SDS011;55017;52.848;6.748;2023-07-28T05:00:09;121.65;;;117.95;;
57057;SDS011;55017;52.848;6.748;2023-07-28T05:02:35;118.10;;;114.50;;
57057;SDS011;55017;52.848;6.748;2023-07-28T05:05:00;115.00;;;111.50;;
57057;SDS011;55017;52.848;6.748;2023-07-28T05:07:26;116.93;;;113.35;;
57057;SDS011;55017;52.848;6.748;2023-07-28T05:09:51;115.93;;;112.43;;
57057;SDS011;55017;52.848;6.748;2023-07-28T05:12:17;117.47;;;113.88;;
57057;SDS011;55017;52.848;6.748;2023-07-28T05:17:08;114.43;;;110.95;;
57057;SDS011;55017;52.848;6.748;2023-07-28T05:19:34;117.28;;;113.68;;
57057;SDS011;55017;52.848;6.748;2023-07-28T05:22:00;112.03;;;108.63;;
57057;SDS011;55017;52.848;6.748;2023-07-28T05:24:25;111.70;;;108.30;;
57057;SDS011;55017;52.848;6.748;2023-07-28T05:26:51;118.57;;;114.97;;
57057;SDS011;55017;52.848;6.748;2023-07-28T05:29:16;120.47;;;116.78;;
57057;SDS011;55017;52.848;6.748;2023-07-28T05:31:42;114.50;;;111.00;;
57057;SDS011;55017;52.848;6.748;2023-07-28T05:34:08;112.47;;;109.07;;
57057;SDS011;55017;52.848;6.748;2023-07-28T05:36:33;116.15;;;112.63;;
57057;SDS011;55017;52.848;6.748;2023-07-28T05:38:59;120.10;;;116.40;;
57057;SDS011;55017;52.848;6.748;2023-07-28T05:41:26;116.82;;;113.25;;
57057;SDS011;55017;52.848;6.748;2023-07-28T05:43:51;119.05;;;115.45;;
57057;SDS011;55017;52.848;6.748;2023-07-28T05:46:17;122.70;;;119.00;;
57057;SDS011;55017;52.848;6.748;2023-07-28T05:48:43;117.95;;;114.35;;
57057;SDS011;55017;52.848;6.748;2023-07-28T05:51:09;120.25;;;116.57;;
57057;SDS011;55017;52.848;6.748;2023-07-28T05:53:34;113.18;;;109.75;;
57057;SDS011;55017;52.848;6.748;2023-07-28T05:56:00;116.82;;;113.32;;
57057;SDS011;55017;52.848;6.748;2023-07-28T05:58:25;116.90;;;113.32;;
57057;SDS011;55017;52.848;6.748;2023-07-28T06:00:51;113.68;;;110.22;;
57057;SDS011;55017;52.848;6.748;2023-07-28T06:03:16;113.05;;;109.63;;
57057;SDS011;55017;52.848;6.748;2023-07-28T06:05:42;115.95;;;112.45;;
57057;SDS011;55017;52.848;6.748;2023-07-28T06:08:08;117.55;;;113.95;;
57057;SDS011;55017;52.848;6.748;2023-07-28T06:10:34;115.22;;;111.72;;
57057;SDS011;55017;52.848;6.748;2023-07-28T06:13:00;115.45;;;111.95;;
57057;SDS011;55017;52.848;6.748;2023-07-28T06:15:26;115.60;;;112.10;;
57057;SDS011;55017;52.848;6.748;2023-07-28T06:17:51;117.55;;;113.95;;
57057;SDS011;55017;52.848;6.748;2023-07-28T06:20:17;117.05;;;113.47;;
57057;SDS011;55017;52.848;6.748;2023-07-28T06:22:43;113.72;;;110.25;;
57057;SDS011;55017;52.848;6.748;2023-07-28T06:25:08;115.97;;;112.47;;
57057;SDS011;55017;52.848;6.748;2023-07-28T06:27:34;114.90;;;111.40;;
57057;SDS011;55017;52.848;6.748;2023-07-28T06:30:00;112.93;;;109.53;;
57057;SDS011;55017;52.848;6.748;2023-07-28T06:32:26;112.40;;;109.00;;
57057;SDS011;55017;52.848;6.748;2023-07-28T06:34:53;113.90;;;110.45;;
57057;SDS011;55017;52.848;6.748;2023-07-28T06:37:19;108.57;;;105.28;;
57057;SDS011;55017;52.848;6.748;2023-07-28T06:39:45;114.13;;;110.63;;
57057;SDS011;55017;52.848;6.748;2023-07-28T06:42:10;109.38;;;106.07;;
57057;SDS011;55017;52.848;6.748;2023-07-28T06:44:36;110.70;;;107.30;;
57057;SDS011;55017;52.848;6.748;2023-07-28T06:49:28;115.38;;;111.88;;
57057;SDS011;55017;52.848;6.748;2023-07-28T06:51:54;114.35;;;110.85;;
57057;SDS011;55017;52.848;6.748;2023-07-28T06:54:19;117.55;;;113.97;;
57057;SDS011;55017;52.848;6.748;2023-07-28T06:56:45;113.25;;;109.85;;
57057;SDS011;55017;52.848;6.748;2023-07-28T06:59:10;114.00;;;110.50;;
57057;SDS011;55017;52.848;6.748;2023-07-28T07:01:36;113.38;;;109.97;;
57057;SDS011;55017;52.848;6.748;2023-07-28T07:04:02;113.55;;;110.10;;
57057;SDS011;55017;52.848;6.748;2023-07-28T07:06:29;115.05;;;111.55;;
57057;SDS011;55017;52.848;6.748;2023-07-28T07:08:55;115.25;;;111.75;;
57057;SDS011;55017;52.848;6.748;2023-07-28T07:11:21;117.13;;;113.55;;
57057;SDS011;55017;52.848;6.748;2023-07-28T07:13:46;118.35;;;114.75;;
57057;SDS011;55017;52.848;6.748;2023-07-28T07:16:15;119.68;;;116.07;;
57057;SDS011;55017;52.848;6.748;2023-07-28T07:18:42;116.50;;;113.00;;
57057;SDS011;55017;52.848;6.748;2023-07-28T07:21:09;117.10;;;113.53;;
57057;SDS011;55017;52.848;6.748;2023-07-28T07:23:35;120.63;;;116.93;;
57057;SDS011;55017;52.848;6.748;2023-07-28T07:26:03;115.75;;;112.25;;
57057;SDS011;55017;52.848;6.748;2023-07-28T07:28:29;118.10;;;114.50;;
57057;SDS011;55017;52.848;6.748;2023-07-28T07:30:55;117.40;;;113.85;;
57057;SDS011;55017;52.848;6.748;2023-07-28T07:33:20;113.43;;;110.00;;
57057;SDS011;55017;52.848;6.748;2023-07-28T07:35:46;113.45;;;110.00;;
57057;SDS011;55017;52.848;6.748;2023-07-28T07:38:12;114.03;;;110.57;;
57057;SDS011;55017;52.848;6.748;2023-07-28T07:40:38;114.18;;;110.70;;
57057;SDS011;55017;52.848;6.748;2023-07-28T07:43:04;112.25;;;108.85;;
57057;SDS011;55017;52.848;6.748;2023-07-28T07:45:29;115.32;;;111.82;;
57057;SDS011;55017;52.848;6.748;2023-07-28T07:47:55;114.78;;;111.28;;
57057;SDS011;55017;52.848;6.748;2023-07-28T07:50:21;113.95;;;110.47;;
57057;SDS011;55017;52.848;6.748;2023-07-28T07:55:12;114.68;;;111.18;;
57057;SDS011;55017;52.848;6.748;2023-07-28T07:57:39;111.72;;;108.32;;
57057;SDS011;55017;52.848;6.748;2023-07-28T08:00:05;112.15;;;108.75;;
57057;SDS011;55017;52.848;6.748;2023-07-28T08:02:31;112.60;;;109.20;;
57057;SDS011;55017;52.848;6.748;2023-07-28T08:04:57;110.72;;;107.38;;
57057;SDS011;55017;52.848;6.748;2023-07-28T08:07:22;109.97;;;106.65;;
57057;SDS011;55017;52.848;6.748;2023-07-28T08:09:48;109.35;;;106.05;;
57057;SDS011;55017;52.848;6.748;2023-07-28T08:12:15;111.55;;;108.15;;
57057;SDS011;55017;52.848;6.748;2023-07-28T08:14:40;109.45;;;106.15;;
57057;SDS011;55017;52.848;6.748;2023-07-28T08:17:07;114.20;;;110.80;;
57057;SDS011;55017;52.848;6.748;2023-07-28T08:19:33;110.28;;;106.97;;
57057;SDS011;55017;52.848;6.748;2023-07-28T08:21:59;108.35;;;105.05;;
57057;SDS011;55017;52.848;6.748;2023-07-28T08:26:50;109.72;;;106.43;;
57057;SDS011;55017;52.848;6.748;2023-07-28T08:29:16;110.28;;;106.95;;
57057;SDS011;55017;52.848;6.748;2023-07-28T08:31:41;111.65;;;108.25;;
57057;SDS011;55017;52.848;6.748;2023-07-28T08:34:07;110.50;;;107.15;;
57057;SDS011;55017;52.848;6.748;2023-07-28T08:36:33;110.38;;;107.03;;
57057;SDS011;55017;52.848;6.748;2023-07-28T08:38:59;112.40;;;109.00;;
57057;SDS011;55017;52.848;6.748;2023-07-28T08:41:25;113.40;;;109.97;;
57057;SDS011;55017;52.848;6.748;2023-07-28T08:43:50;109.72;;;106.43;;
57057;SDS011;55017;52.848;6.748;2023-07-28T08:46:18;112.07;;;108.68;;
57057;SDS011;55017;52.848;6.748;2023-07-28T08:48:45;109.88;;;106.57;;
57057;SDS011;55017;52.848;6.748;2023-07-28T08:53:37;111.50;;;108.10;;
57057;SDS011;55017;52.848;6.748;2023-07-28T08:56:03;116.32;;;112.82;;
57057;SDS011;55017;52.848;6.748;2023-07-28T08:58:29;114.95;;;111.45;;
57057;SDS011;55017;52.848;6.748;2023-07-28T09:00:55;112.78;;;109.38;;
57057;SDS011;55017;52.848;6.748;2023-07-28T09:03:21;111.78;;;108.38;;
57057;SDS011;55017;52.848;6.748;2023-07-28T09:05:47;113.45;;;110.05;;
57057;SDS011;55017;52.848;6.748;2023-07-28T09:08:16;113.30;;;109.88;;
57057;SDS011;55017;52.848;6.748;2023-07-28T09:13:12;113.65;;;110.20;;
57057;SDS011;55017;52.848;6.748;2023-07-28T09:15:38;113.53;;;110.10;;
57057;SDS011;55017;52.848;6.748;2023-07-28T09:18:07;113.85;;;110.38;;
57057;SDS011;55017;52.848;6.748;2023-07-28T09:20:37;113.13;;;109.72;;
57057;SDS011;55017;52.848;6.748;2023-07-28T09:23:04;103.70;;;100.60;;
57057;SDS011;55017;52.848;6.748;2023-07-28T09:25:30;98.10;;;95.10;;
57057;SDS011;55017;52.848;6.748;2023-07-28T09:27:57;105.72;;;102.53;;
57057;SDS011;55017;52.848;6.748;2023-07-28T09:30:23;109.60;;;106.30;;
57057;SDS011;55017;52.848;6.748;2023-07-28T09:32:51;112.50;;;109.10;;
57057;SDS011;55017;52.848;6.748;2023-07-28T09:35:19;114.43;;;110.95;;
57057;SDS011;55017;52.848;6.748;2023-07-28T09:37:47;112.65;;;109.25;;
57057;SDS011;55017;52.848;6.748;2023-07-28T09:40:16;114.47;;;111.00;;
57057;SDS011;55017;52.848;6.748;2023-07-28T09:42:44;112.80;;;109.40;;
57057;SDS011;55017;52.848;6.748;2023-07-28T09:45:14;110.50;;;107.15;;
57057;SDS011;55017;52.848;6.748;2023-07-28T09:50:09;111.72;;;108.32;;
57057;SDS011;55017;52.848;6.748;2023-07-28T09:52:43;106.90;;;103.70;;
57057;SDS011;55017;52.848;6.748;2023-07-28T09:55:12;111.05;;;107.75;;
57057;SDS011;55017;52.848;6.748;2023-07-28T09:57:46;111.47;;;108.07;;
57057;SDS011;55017;52.848;6.748;2023-07-28T10:00:19;113.13;;;109.72;;
57057;SDS011;55017;52.848;6.748;2023-07-28T10:02:46;114.40;;;110.90;;
57057;SDS011;55017;52.848;6.748;2023-07-28T10:05:12;112.13;;;108.72;;
57057;SDS011;55017;52.848;6.748;2023-07-28T10:07:40;111.65;;;108.25;;
57057;SDS011;55017;52.848;6.748;2023-07-28T10:10:11;113.55;;;110.13;;
57057;SDS011;55017;52.848;6.748;2023-07-28T10:12:48;113.03;;;109.63;;
57057;SDS011;55017;52.848;6.748;2023-07-28T10:15:16;113.68;;;110.22;;
57057;SDS011;55017;52.848;6.748;2023-07-28T10:17:47;114.00;;;110.53;;
57057;SDS011;55017;52.848;6.748;2023-07-28T10:20:32;112.20;;;108.80;;
57057;SDS011;55017;52.848;6.748;2023-07-28T10:23:07;110.97;;;107.57;;
57057;SDS011;55017;52.848;6.748;2023-07-28T10:25:40;113.40;;;110.00;;
57057;SDS011;55017;52.848;6.748;2023-07-28T10:28:07;115.32;;;111.82;;
57057;SDS011;55017;52.848;6.748;2023-07-28T10:30:51;113.53;;;110.10;;
57057;SDS011;55017;52.848;6.748;2023-07-28T10:37:00;113.85;;;110.40;;
57057;SDS011;55017;52.848;6.748;2023-07-28T10:41:29;108.28;;;105.00;;
57057;SDS011;55017;52.848;6.748;2023-07-28T10:46:23;111.50;;;108.13;;
57057;SDS011;55017;52.848;6.748;2023-07-28T10:48:51;108.28;;;104.97;;
57057;SDS011;55017;52.848;6.748;2023-07-28T10:53:51;108.85;;;105.55;;
57057;SDS011;55017;52.848;6.748;2023-07-28T10:56:20;109.10;;;105.80;;
57057;SDS011;55017;52.848;6.748;2023-07-28T10:58:46;109.38;;;106.07;;
57057;SDS011;55017;52.848;6.748;2023-07-28T11:01:21;111.25;;;107.85;;
57057;SDS011;55017;52.848;6.748;2023-07-28T11:03:48;108.05;;;104.75;;
57057;SDS011;55017;52.848;6.748;2023-07-28T11:06:13;109.90;;;106.60;;
57057;SDS011;55017;52.848;6.748;2023-07-28T11:08:39;107.97;;;104.68;;
57057;SDS011;55017;52.848;6.748;2023-07-28T11:11:05;109.60;;;106.30;;
57057;SDS011;55017;52.848;6.748;2023-07-28T11:13:31;107.15;;;103.90;;
57057;SDS011;55017;52.848;6.748;2023-07-28T11:15:57;106.45;;;103.25;;
57057;SDS011;55017;52.848;6.748;2023-07-28T11:18:25;108.32;;;105.03;;
57057;SDS011;55017;52.848;6.748;2023-07-28T11:23:16;108.82;;;105.53;;
57057;SDS011;55017;52.848;6.748;2023-07-28T11:25:43;112.47;;;109.07;;
57057;SDS011;55017;52.848;6.748;2023-07-28T11:28:09;110.43;;;107.07;;
57057;SDS011;55017;52.848;6.748;2023-07-28T11:30:35;109.35;;;106.05;;
57057;SDS011;55017;52.848;6.748;2023-07-28T11:33:03;114.18;;;110.68;;
57057;SDS011;55017;52.848;6.748;2023-07-28T11:35:29;109.22;;;105.93;;
57057;SDS011;55017;52.848;6.748;2023-07-28T11:37:54;107.63;;;104.32;;
57057;SDS011;55017;52.848;6.748;2023-07-28T11:40:21;110.10;;;106.80;;
57057;SDS011;55017;52.848;6.748;2023-07-28T11:42:49;107.25;;;104.00;;
57057;SDS011;55017;52.848;6.748;2023-07-28T11:47:55;105.03;;;101.82;;
57057;SDS011;55017;52.848;6.748;2023-07-28T11:50:28;107.68;;;104.40;;
57057;SDS011;55017;52.848;6.748;2023-07-28T11:52:56;111.57;;;108.18;;
57057;SDS011;55017;52.848;6.748;2023-07-28T11:55:23;108.93;;;105.63;;
57057;SDS011;55017;52.848;6.748;2023-07-28T11:57:49;111.07;;;107.68;;
57057;SDS011;55017;52.848;6.748;2023-07-28T12:00:16;112.18;;;108.78;;
57057;SDS011;55017;52.848;6.748;2023-07-28T12:02:42;112.28;;;108.88;;
57057;SDS011;55017;52.848;6.748;2023-07-28T12:05:14;110.80;;;107.43;;
57057;SDS011;55017;52.848;6.748;2023-07-28T12:07:41;112.30;;;108.90;;
57057;SDS011;55017;52.848;6.748;2023-07-28T12:10:12;111.72;;;108.32;;
57057;SDS011;55017;52.848;6.748;2023-07-28T12:18:06;111.20;;;107.80;;
57057;SDS011;55017;52.848;6.748;2023-07-28T12:20:42;112.40;;;109.00;;
57057;SDS011;55017;52.848;6.748;2023-07-28T12:23:12;110.70;;;107.32;;
57057;SDS011;55017;52.848;6.748;2023-07-28T12:25:39;109.63;;;106.32;;
57057;SDS011;55017;52.848;6.748;2023-07-28T12:28:05;111.07;;;107.68;;
57057;SDS011;55017;52.848;6.748;2023-07-28T12:30:32;105.17;;;101.97;;
57057;SDS011;55017;52.848;6.748;2023-07-28T12:32:58;108.35;;;105.05;;
57057;SDS011;55017;52.848;6.748;2023-07-28T12:35:24;109.35;;;106.05;;
57057;SDS011;55017;52.848;6.748;2023-07-28T12:37:51;111.18;;;107.82;;
57057;SDS011;55017;52.848;6.748;2023-07-28T12:40:17;110.93;;;107.55;;
57057;SDS011;55017;52.848;6.748;2023-07-28T12:42:46;109.93;;;106.63;;
57057;SDS011;55017;52.848;6.748;2023-07-28T12:45:13;113.50;;;110.10;;
57057;SDS011;55017;52.848;6.748;2023-07-28T12:47:40;114.22;;;110.82;;
57057;SDS011;55017;52.848;6.748;2023-07-28T12:50:06;108.80;;;105.50;;
57057;SDS011;55017;52.848;6.748;2023-07-28T12:52:32;99.78;;;96.78;;
57057;SDS011;55017;52.848;6.748;2023-07-28T12:57:24;106.88;;;103.68;;
57057;SDS011;55017;52.848;6.748;2023-07-28T12:59:49;100.10;;;97.10;;
57057;SDS011;55017;52.848;6.748;2023-07-28T13:02:15;103.97;;;100.88;;
57057;SDS011;55017;52.848;6.748;2023-07-28T13:04:42;108.63;;;105.32;;
57057;SDS011;55017;52.848;6.748;2023-07-28T13:07:07;97.23;;;94.33;;
57057;SDS011;55017;52.848;6.748;2023-07-28T13:09:33;102.03;;;98.93;;
57057;SDS011;55017;52.848;6.748;2023-07-28T13:11:58;105.93;;;102.72;;
57057;SDS011;55017;52.848;6.748;2023-07-28T13:14:24;107.85;;;104.65;;
57057;SDS011;55017;52.848;6.748;2023-07-28T13:16:49;110.60;;;107.30;;
57057;SDS011;55017;52.848;6.748;2023-07-28T13:19:15;109.43;;;106.13;;
57057;SDS011;55017;52.848;6.748;2023-07-28T13:21:41;108.75;;;105.45;;
57057;SDS011;55017;52.848;6.748;2023-07-28T13:24:06;99.50;;;96.50;;
57057;SDS011;55017;52.848;6.748;2023-07-28T13:28:58;109.95;;;106.65;;
57057;SDS011;55017;52.848;6.748;2023-07-28T13:31:26;109.78;;;106.47;;
57057;SDS011;55017;52.848;6.748;2023-07-28T13:36:18;107.28;;;104.07;;
57057;SDS011;55017;52.848;6.748;2023-07-28T13:38:43;99.65;;;96.65;;
57057;SDS011;55017;52.848;6.748;2023-07-28T13:41:09;103.00;;;99.90;;
57057;SDS011;55017;52.848;6.748;2023-07-28T13:43:34;105.75;;;102.55;;
57057;SDS011;55017;52.848;6.748;2023-07-28T13:46:03;110.57;;;107.28;;
57057;SDS011;55017;52.848;6.748;2023-07-28T13:48:29;105.95;;;102.75;;
57057;SDS011;55017;52.848;6.748;2023-07-28T13:53:21;107.07;;;103.88;;
57057;SDS011;55017;52.848;6.748;2023-07-28T13:55:47;97.97;;;95.00;;
57057;SDS011;55017;52.848;6.748;2023-07-28T13:58:12;91.90;;;89.10;;
57057;SDS011;55017;52.848;6.748;2023-07-28T14:00:38;100.30;;;97.30;;
57057;SDS011;55017;52.848;6.748;2023-07-28T14:03:03;102.38;;;99.28;;
57057;SDS011;55017;52.848;6.748;2023-07-28T14:05:29;92.13;;;89.32;;
57057;SDS011;55017;52.848;6.748;2023-07-28T14:10:20;100.43;;;97.43;;
57057;SDS011;55017;52.848;6.748;2023-07-28T14:12:46;104.97;;;101.80;;
57057;SDS011;55017;52.848;6.748;2023-07-28T14:15:11;102.65;;;99.55;;
57057;SDS011;55017;52.848;6.748;2023-07-28T14:17:37;103.35;;;100.25;;
57057;SDS011;55017;52.848;6.748;2023-07-28T14:20:03;105.13;;;101.93;;
57057;SDS011;55017;52.848;6.748;2023-07-28T14:22:29;104.57;;;101.47;;
57057;SDS011;55017;52.848;6.748;2023-07-28T14:24:55;105.97;;;102.78;;
57057;SDS011;55017;52.848;6.748;2023-07-28T14:27:20;106.40;;;103.20;;
57057;SDS011;55017;52.848;6.748;2023-07-28T14:29:46;95.55;;;92.65;;
57057;SDS011;55017;52.848;6.748;2023-07-28T14:32:11;103.55;;;100.45;;
57057;SDS011;55017;52.848;6.748;2023-07-28T14:34:37;104.05;;;100.95;;
57057;SDS011;55017;52.848;6.748;2023-07-28T14:37:03;105.32;;;102.13;;
57057;SDS011;55017;52.848;6.748;2023-07-28T14:41:56;106.10;;;102.90;;
57057;SDS011;55017;52.848;6.748;2023-07-28T14:44:21;108.20;;;104.93;;
57057;SDS011;55017;52.848;6.748;2023-07-28T14:46:47;97.25;;;94.35;;
57057;SDS011;55017;52.848;6.748;2023-07-28T14:49:12;105.22;;;102.03;;
57057;SDS011;55017;52.848;6.748;2023-07-28T14:51:38;92.33;;;89.53;;